Impacts METAR Board
IDs:

KRKP - Rockport/Aransas Cnt, TX, US

Updated at: 1300 UTC 13 Dec 2019
Potential Impact None Slight Moderate High
Time 13/01Z 13/02Z 13/03Z 13/04Z 13/05Z 13/06Z 13/07Z 13/08Z 13/09Z 13/10Z 13/11Z 13/12Z 13/13Z
Temp64 64 63 62 62 60 57 56 58 59 60 60 60
Dewpt58 58 58 57 57 55 54 52 54 56 56 57 57
Altim30.09 30.09 30.10 30.09 30.08 30.06 30.05 30.03 30.02 30.01 29.99 29.98 29.99
VIS9 8 8 7 7 7 1 4 4 4 0.25 0.25 0.25
CIG9 14 8 7 7 -- -- -- 5 3 2 2 2
CoverOVCOVCOVCOVCOVCFEWCLRCLRBKNOVCOVXOVXOVX
FltCatIFRMVFRIFRIFRIFRVFRIFRMVFRIFRLIFRLIFRLIFRLIFR
WX------------BRBRBRBRFGFGFG
WDir304010350360700120310310310310300
WSpd6 5 3 4 4 3 0 4 4 4 3 5 4
WGst-- -- -- -- -- -- -- -- -- -- -- -- --
Raw hourly METARs
KRKP 130053Z AUTO 03006KT 9SM OVC009 18/14 A3009 RMK AO2 SLP192 T01780144
KRKP 130153Z AUTO 04005KT 8SM OVC014 18/14 A3009 RMK AO2 SLP191 T01780144
KRKP 130253Z AUTO 01003KT 8SM OVC008 17/14 A3010 RMK AO2 SLP193 T01720144 53002
KRKP 130353Z AUTO 35004KT 7SM OVC007 17/14 A3009 RMK AO2 SLP190 T01670139
KRKP 130453Z AUTO 36004KT 7SM OVC007 17/14 A3008 RMK AO2 SLP188 T01670139
KRKP 130553Z AUTO 07003KT 7SM FEW019 FEW037 16/13 A3006 RMK AO2 SLP182 T01560128 10178 20156 402220089 58011
KRKP 130703Z AUTO 00000KT 1SM BR CLR 14/12 A3005 RMK AO2 T01390122
KRKP 130753Z AUTO 12004KT 4SM BR CLR 13/11 A3003 RMK AO2 SLP170 T01330111
KRKP 130853Z AUTO 31004KT 4SM BR BKN005 14/12 A3002 RMK AO2 SLP169 T01440122 56008
KRKP 130953Z AUTO 31004KT 4SM BR OVC003 15/13 A3001 RMK AO2 SLP163 T01500133
KRKP 131053Z AUTO 31003KT 1/4SM FG VV002 16/13 A2999 RMK AO2 SLP155 T01560133
KRKP 131153Z AUTO 31005KT 1/4SM FG VV002 16/14 A2998 RMK AO2 SLP155 T01560139 10156 20122 56014
KRKP 131253Z AUTO 30004KT 1/4SM FG VV002 16/14 A2999 RMK AO2 SLP158 T01560139



Page loaded:  13:50 UTC  |   05:50 AM Pacific  |   06:50 AM Mountain  |   07:50 AM Central  |   08:50 AM Eastern

 

ADVISORIES

FORECASTS

FORECASTS

OBSERVATIONS

USER TOOLS

ABOUT US